NVIDIA ROA 2006-2018 | NVDA

Current and historical return on assets (ROA) values for NVIDIA (NVDA) over the last 10 years. Return on assets can be defined as an indicator of how profitable a company is relative to its total assets. Calculated by dividing a company's operating earnings by its total assets. NVIDIA ROA for the three months ending July 31, 2018 was 36.39%.
NVIDIA ROA - Return on Assets Historical Data
Date TTM Net Income Total Assets Return on Assets
2018-07-31 $4.30B $12.88B 37.89%
2018-04-30 $3.78B $11.46B 36.10%
2018-01-31 $3.05B $11.24B 30.56%
2017-10-31 $2.58B $9.83B 26.85%
2017-07-31 $2.29B $9.40B 23.91%
2017-04-30 $1.97B $9.41B 21.64%
2017-01-31 $1.67B $9.84B 19.59%
2016-10-31 $1.22B $9.61B 15.45%
2016-07-31 $0.92B $7.46B 12.68%
2016-04-30 $0.69B $7.11B 9.61%
2016-01-31 $0.61B $7.37B 8.52%
2015-10-31 $0.60B $7.17B 8.36%
2015-07-31 $0.53B $6.98B 7.42%
2015-04-30 $0.63B $7.29B 8.87%
2015-01-31 $0.63B $7.20B 9.05%
2014-10-31 $0.59B $6.89B 8.38%
2014-07-31 $0.53B $6.93B 7.94%
2014-04-30 $0.50B $6.87B 7.86%
2014-01-31 $0.44B $7.25B 7.09%
2013-10-31 $0.47B $5.71B 7.79%
2013-07-31 $0.56B $5.57B 9.15%
2013-04-30 $0.58B $6.28B 9.41%
2013-01-31 $0.56B $6.41B 9.33%
2012-10-31 $0.50B $6.08B 8.68%
2012-07-31 $0.47B $5.89B 8.51%
2012-04-30 $0.51B $5.71B 9.54%
2012-01-31 $0.58B $5.55B 11.48%
2011-10-31 $0.64B $5.09B 13.28%
2011-07-31 $0.54B $4.86B 12.08%
2011-04-30 $0.25B $4.74B 5.95%
2011-01-31 $0.25B $4.50B 6.37%
2010-10-31 $0.21B $3.92B 5.67%
2010-07-31 $0.24B $3.73B 6.47%
2010-04-30 $0.27B $3.80B 7.69%
2010-01-31 $-0.07B $3.59B -1.98%
2009-10-31 $-0.35B $3.46B -10.41%
2009-07-31 $-0.39B $3.30B -11.63%
2009-04-30 $-0.41B $3.18B -11.54%
2009-01-31 $-0.03B $3.35B -0.81%
2008-10-31 $0.38B $3.65B 9.89%
2008-07-31 $0.55B $3.96B 14.65%
2008-04-30 $0.84B $3.81B 23.97%
2008-01-31 $0.80B $3.75B 24.44%
2007-10-31 $0.71B $3.48B 23.53%
2007-07-31 $0.58B $3.04B 20.86%
2007-04-30 $0.49B $2.80B 19.23%
2007-01-31 $0.45B $2.68B 18.85%
2006-10-31 $0.38B $2.53B 17.39%
2006-07-31 $0.34B $2.18B 16.83%
2006-04-30 $0.33B $2.16B 17.15%
2006-01-31 $0.30B $1.96B 16.84%
2005-10-31 $0.24B $1.81B 14.00%
Sector Industry Market Cap Revenue
Computer and Technology Semiconductor - General $99.973B $9.714B
NVIDIA Corporation is the worldwide leader in graphics processors and media communications devices. The NVIDIA? Tesla? accelerated computing platform gives modern data centers the power to accelerate both artificial intelligence and high-performance computing workloads. NVIDIA? DGX? Systems are built on the new, revolutionary NVIDIA Volta? GPU platform. Powered by NVIDIA? Tesla? GPUs and NVIDIA NVLink?, the HGX reference architecture standardizes the design of data centers accelerating AI in the cloud-from autonomous driving and personalized healthcare to superhuman voice recognition. NVIDIA GPU Cloud (NGC) is a GPU-accelerated platform that runs everywhere. Data scientists and researchers can now rapidly build, train, and deploy neural network models to address some of the most complicated AI challenges. Their researchers operate as a think tank, accelerating advances in product technologies, including AI innovations like facial animations and light transport.
Stock Name Country Market Cap PE Ratio
Intel (INTC) United States $228.442B 11.12
Texas Instruments (TXN) United States $93.989B 18.64
STMicroelectronics (STM) Switzerland $12.579B 10.09
Amtech Systems (ASYS) United States $0.079B 4.08